Ballantyne Straits — CZ5836 — position and weather

sailwx.info

Track history (hours):
 
Tides and Currents Weather Stations Pressure Air Temp Water Temp Dewpoint Dewpoint Depression Visibility Wind Speed Wind Dir Waves Ship Positions

Ballantyne Straits

Last reported at 2018-Jan-18 08:00 UTC. Time now 2018-Jan-18 08:07 UTC.
Position N 49°28' W 123°28'.

Length 22 m; draft 4.9 m.

Type: Tug. MMSI: 316005605.

Date/timePositionNaut miles runAvg speedWind from/ knotsBaromVisibWave heightAir tempDewpointWater temp
2018-Jan-18 08:00N 49°28' W 123°28'0 0.0
2018-Jan-18 07:30N 49°28' W 123°28'0 0.0
2018-Jan-18 07:00N 49°28' W 123°28'0 0.0
2018-Jan-18 06:30N 49°28' W 123°28'2 4.5
2018-Jan-18 06:00N 49°26' W 123°28'2 4.3
2018-Jan-18 05:30N 49°28' W 123°28'0 0.5
2018-Jan-18 05:00N 49°28' W 123°28'2 3.1
2018-Jan-18 04:29N 49°26' W 123°27'4 4.9
2018-Jan-18 03:40N 49°23' W 123°29'3 6.9
2018-Jan-18 03:16N 49°23' W 123°34'4 6.8
2018-Jan-18 02:43N 49°25' W 123°39'17 5.4
2018-Jan-17 23:30N 49°33' W 124°02'  
2018-Jan-12 15:00N 51°20' W 127°20'0 0.0
2018-Jan-12 14:30N 51°20' W 127°20'0 0.1
2018-Jan-12 14:01N 51°20' W 127°20'1 1.2
2018-Jan-12 13:26N 51°20' W 127°21'0 0.0
2018-Jan-12 12:57N 51°20' W 127°21'0 0.0
2018-Jan-12 12:30N 51°20' W 127°21'0 0.0
2018-Jan-12 12:00N 51°20' W 127°21'0 0.0
2018-Jan-12 11:25N 51°20' W 127°21'0 0.0
2018-Jan-12 10:49N 51°20' W 127°21'0 0.0
2018-Jan-12 10:31N 51°20' W 127°21'0 0.0
2018-Jan-12 09:57N 51°20' W 127°21'0 0.0
2018-Jan-12 09:30N 51°20' W 127°21'0 0.0
2018-Jan-12 08:58N 51°20' W 127°21'0 0.0
2018-Jan-12 08:28N 51°20' W 127°21'0 0.0
2018-Jan-12 07:43N 51°20' W 127°21'0 0.0
2018-Jan-12 07:29N 51°20' W 127°21'0 0.4
2018-Jan-12 07:01N 51°20' W 127°21'2 4.6
2018-Jan-12 06:29N 51°18' W 127°24'3 6.0
2018-Jan-12 05:58N 51°18' W 127°29'4 8.1
2018-Jan-12 05:30N 51°19' W 127°35'4 8.3
2018-Jan-12 04:59N 51°17' W 127°41'4 8.3
2018-Jan-12 04:28N 51°15' W 127°47'3 5.8
2018-Jan-12 03:58N 51°13' W 127°51'4 8.0
2018-Jan-12 03:29N 51°11' W 127°55'5 7.8
2018-Jan-12 02:47N 51°07' W 128°01'15 7.7
2018-Jan-12 00:52N 50°56' W 128°17'6 7.9
2018-Jan-12 00:08N 50°52' W 128°24'1 7.8
2018-Jan-11 23:58N 50°51' W 128°25'4 7.7
2018-Jan-11 23:30N 50°48' W 128°28'39 5.7
2018-Jan-11 16:42N 50°35' W 127°31'2 8.7
2018-Jan-11 16:28N 50°35' W 127°28'1 2.1
2018-Jan-11 16:01N 50°36' W 127°27'0 0.0
2018-Jan-11 15:31N 50°36' W 127°27'0 0.0
2018-Jan-11 15:00N 50°36' W 127°27'0 0.0
2018-Jan-11 14:30N 50°36' W 127°27'0 0.0
2018-Jan-11 13:57N 50°36' W 127°27'0 0.0
2018-Jan-11 13:31N 50°36' W 127°27'0 0.0
2018-Jan-11 12:50N 50°36' W 127°27'0 0.0
2018-Jan-11 12:27N 50°36' W 127°27'0 0.0
2018-Jan-11 12:01N 50°36' W 127°27'0 0.0
2018-Jan-11 11:28N 50°36' W 127°27'0 0.0
2018-Jan-11 11:00N 50°36' W 127°27'0 0.0
2018-Jan-11 10:31N 50°36' W 127°27'0 0.0
2018-Jan-11 10:00N 50°36' W 127°27'0 0.0
2018-Jan-11 09:30N 50°36' W 127°27'0 0.0
2018-Jan-11 09:00N 50°36' W 127°27'0 0.0
2018-Jan-11 08:31N 50°36' W 127°27'0 0.0
2018-Jan-11 08:00N 50°36' W 127°27'0 0.0
2018-Jan-11 07:27N 50°36' W 127°27'0 0.0
2018-Jan-11 07:00N 50°36' W 127°27'0 0.0
2018-Jan-11 06:30N 50°36' W 127°27'0 0.0
2018-Jan-11 06:00N 50°36' W 127°27'0 0.0
2018-Jan-11 05:30N 50°36' W 127°27'0 0.0
2018-Jan-11 05:01N 50°36' W 127°27'0 0.0
2018-Jan-11 04:31N 50°36' W 127°27'0 0.0
2018-Jan-11 04:01N 50°36' W 127°27'0 0.0
2018-Jan-11 03:31N 50°36' W 127°27'0 0.0
2018-Jan-11 03:00N 50°36' W 127°27'0 0.0
2018-Jan-11 02:31N 50°36' W 127°27'0 0.0
2018-Jan-11 02:00N 50°36' W 127°27'0 0.0
2018-Jan-11 01:30N 50°36' W 127°27'0 0.0
2018-Jan-11 00:59N 50°36' W 127°27'0 0.0
2018-Jan-11 00:31N 50°36' W 127°27'0 0.0
2018-Jan-10 23:58N 50°36' W 127°27'0 0.0
2018-Jan-10 23:30N 50°36' W 127°27'0 0.0
2018-Jan-10 22:57N 50°36' W 127°27'0 0.0
2018-Jan-10 22:30N 50°36' W 127°27'0 0.0
2018-Jan-10 22:00N 50°36' W 127°27'0 0.0
2018-Jan-10 21:28N 50°36' W 127°27'0 0.0
2018-Jan-10 20:47N 50°36' W 127°27'0 0.0
2018-Jan-10 20:31N 50°36' W 127°27'0 0.0
2018-Jan-10 20:00N 50°36' W 127°27'0 0.0
2018-Jan-10 19:26N 50°36' W 127°27'0 0.0
2018-Jan-10 18:57N 50°36' W 127°27'0 0.0
2018-Jan-10 18:30N 50°36' W 127°27'0 0.0
2018-Jan-10 18:00N 50°36' W 127°27'0 0.2
2018-Jan-10 17:31N 50°36' W 127°27'  
Track history (hours):
 
Tides and Currents Weather Stations Pressure Air Temp Water Temp Dewpoint Dewpoint Depression Visibility Wind Speed Wind Dir Waves Ship Positions

Ballantyne Straits

Last reported at 2018-Jan-18 08:00 UTC. Time now 2018-Jan-18 08:07 UTC.
Position N 49°28' W 123°28'.

Length 22 m; draft 4.9 m.

Type: Tug. MMSI: 316005605.

Date/timePositionNaut miles runAvg speedWind from/ knotsBaromVisibWave heightAir tempDewpointWater temp
2018-Jan-18 08:00N 49°28' W 123°28'0 0.0
2018-Jan-18 07:30N 49°28' W 123°28'0 0.0
2018-Jan-18 07:00N 49°28' W 123°28'0 0.0
2018-Jan-18 06:30N 49°28' W 123°28'2 4.5
2018-Jan-18 06:00N 49°26' W 123°28'2 4.3
2018-Jan-18 05:30N 49°28' W 123°28'0 0.5
2018-Jan-18 05:00N 49°28' W 123°28'2 3.1
2018-Jan-18 04:29N 49°26' W 123°27'4 4.9
2018-Jan-18 03:40N 49°23' W 123°29'3 6.9
2018-Jan-18 03:16N 49°23' W 123°34'4 6.8
2018-Jan-18 02:43N 49°25' W 123°39'17 5.4
2018-Jan-17 23:30N 49°33' W 124°02'  
2018-Jan-12 15:00N 51°20' W 127°20'0 0.0
2018-Jan-12 14:30N 51°20' W 127°20'0 0.1
2018-Jan-12 14:01N 51°20' W 127°20'1 1.2
2018-Jan-12 13:26N 51°20' W 127°21'0 0.0
2018-Jan-12 12:57N 51°20' W 127°21'0 0.0
2018-Jan-12 12:30N 51°20' W 127°21'0 0.0
2018-Jan-12 12:00N 51°20' W 127°21'0 0.0
2018-Jan-12 11:25N 51°20' W 127°21'0 0.0
2018-Jan-12 10:49N 51°20' W 127°21'0 0.0
2018-Jan-12 10:31N 51°20' W 127°21'0 0.0
2018-Jan-12 09:57N 51°20' W 127°21'0 0.0
2018-Jan-12 09:30N 51°20' W 127°21'0 0.0
2018-Jan-12 08:58N 51°20' W 127°21'0 0.0
2018-Jan-12 08:28N 51°20' W 127°21'0 0.0
2018-Jan-12 07:43N 51°20' W 127°21'0 0.0
2018-Jan-12 07:29N 51°20' W 127°21'0 0.4
2018-Jan-12 07:01N 51°20' W 127°21'2 4.6
2018-Jan-12 06:29N 51°18' W 127°24'3 6.0
2018-Jan-12 05:58N 51°18' W 127°29'4 8.1
2018-Jan-12 05:30N 51°19' W 127°35'4 8.3
2018-Jan-12 04:59N 51°17' W 127°41'4 8.3
2018-Jan-12 04:28N 51°15' W 127°47'3 5.8
2018-Jan-12 03:58N 51°13' W 127°51'4 8.0
2018-Jan-12 03:29N 51°11' W 127°55'5 7.8
2018-Jan-12 02:47N 51°07' W 128°01'15 7.7
2018-Jan-12 00:52N 50°56' W 128°17'6 7.9
2018-Jan-12 00:08N 50°52' W 128°24'1 7.8
2018-Jan-11 23:58N 50°51' W 128°25'4 7.7
2018-Jan-11 23:30N 50°48' W 128°28'39 5.7
2018-Jan-11 16:42N 50°35' W 127°31'2 8.7
2018-Jan-11 16:28N 50°35' W 127°28'1 2.1
2018-Jan-11 16:01N 50°36' W 127°27'0 0.0
2018-Jan-11 15:31N 50°36' W 127°27'0 0.0
2018-Jan-11 15:00N 50°36' W 127°27'0 0.0
2018-Jan-11 14:30N 50°36' W 127°27'0 0.0
2018-Jan-11 13:57N 50°36' W 127°27'0 0.0
2018-Jan-11 13:31N 50°36' W 127°27'0 0.0
2018-Jan-11 12:50N 50°36' W 127°27'0 0.0
2018-Jan-11 12:27N 50°36' W 127°27'0 0.0
2018-Jan-11 12:01N 50°36' W 127°27'0 0.0
2018-Jan-11 11:28N 50°36' W 127°27'0 0.0
2018-Jan-11 11:00N 50°36' W 127°27'0 0.0
2018-Jan-11 10:31N 50°36' W 127°27'0 0.0
2018-Jan-11 10:00N 50°36' W 127°27'0 0.0
2018-Jan-11 09:30N 50°36' W 127°27'0 0.0
2018-Jan-11 09:00N 50°36' W 127°27'0 0.0
2018-Jan-11 08:31N 50°36' W 127°27'0 0.0
2018-Jan-11 08:00N 50°36' W 127°27'0 0.0
2018-Jan-11 07:27N 50°36' W 127°27'0 0.0
2018-Jan-11 07:00N 50°36' W 127°27'0 0.0
2018-Jan-11 06:30N 50°36' W 127°27'0 0.0
2018-Jan-11 06:00N 50°36' W 127°27'0 0.0
2018-Jan-11 05:30N 50°36' W 127°27'0 0.0
2018-Jan-11 05:01N 50°36' W 127°27'0 0.0
2018-Jan-11 04:31N 50°36' W 127°27'0 0.0
2018-Jan-11 04:01N 50°36' W 127°27'0 0.0
2018-Jan-11 03:31N 50°36' W 127°27'0 0.0
2018-Jan-11 03:00N 50°36' W 127°27'0 0.0
2018-Jan-11 02:31N 50°36' W 127°27'0 0.0
2018-Jan-11 02:00N 50°36' W 127°27'0 0.0
2018-Jan-11 01:30N 50°36' W 127°27'0 0.0
2018-Jan-11 00:59N 50°36' W 127°27'0 0.0
2018-Jan-11 00:31N 50°36' W 127°27'0 0.0
2018-Jan-10 23:58N 50°36' W 127°27'0 0.0
2018-Jan-10 23:30N 50°36' W 127°27'0 0.0
2018-Jan-10 22:57N 50°36' W 127°27'0 0.0
2018-Jan-10 22:30N 50°36' W 127°27'0 0.0
2018-Jan-10 22:00N 50°36' W 127°27'0 0.0
2018-Jan-10 21:28N 50°36' W 127°27'0 0.0
2018-Jan-10 20:47N 50°36' W 127°27'0 0.0
2018-Jan-10 20:31N 50°36' W 127°27'0 0.0
2018-Jan-10 20:00N 50°36' W 127°27'0 0.0
2018-Jan-10 19:26N 50°36' W 127°27'0 0.0
2018-Jan-10 18:57N 50°36' W 127°27'0 0.0
2018-Jan-10 18:30N 50°36' W 127°27'0 0.0
2018-Jan-10 18:00N 50°36' W 127°27'0 0.2
2018-Jan-10 17:31N 50°36' W 127°27'  

Dump ship's entire track history